createdAt,value
2022-12-29T00:02:19.304Z,4.02
2022-12-29T00:04:47.208Z,4.25
2022-12-29T00:07:15.053Z,4.34
2022-12-29T00:09:45.506Z,4.34
2022-12-29T00:12:13.363Z,4.32
2022-12-29T00:14:57.926Z,4.34
2022-12-29T00:17:25.802Z,4.29
2022-12-29T00:20:11.183Z,4.44
2022-12-29T00:22:56.624Z,4.46
2022-12-29T00:25:43.594Z,4.45
2022-12-29T00:28:29.137Z,4.43
2022-12-29T00:31:19.258Z,4.42
2022-12-29T00:34:04.800Z,4.45
2022-12-29T00:36:36.908Z,4.37
2022-12-29T00:39:27.004Z,4.49
2022-12-29T00:42:14.074Z,4.54
2022-12-29T00:44:41.947Z,4.57
2022-12-29T00:47:09.836Z,4.64
2022-12-29T00:49:36.678Z,4.61
2022-12-29T00:52:07.402Z,4.57
2022-12-29T00:54:37.022Z,4.58
2022-12-29T00:57:07.486Z,4.55
2022-12-29T00:59:37.000Z,4.60
2022-12-29T01:02:04.986Z,4.59
2022-12-29T01:04:33.094Z,4.51
2022-12-29T01:07:00.935Z,4.56
2022-12-29T01:09:46.020Z,4.63
2022-12-29T01:12:15.581Z,4.58
2022-12-29T01:14:43.515Z,4.46
2022-12-29T01:17:11.368Z,4.43
2022-12-29T01:19:39.393Z,4.20
2022-12-29T01:22:07.368Z,4.39
2022-12-29T01:24:35.265Z,4.38
2022-12-29T01:27:03.132Z,4.35
2022-12-29T01:29:32.360Z,4.43
2022-12-29T01:32:00.218Z,4.45
2022-12-29T01:34:28.164Z,4.36
2022-12-29T01:36:55.990Z,4.35
2022-12-29T01:39:26.188Z,4.35
2022-12-29T01:41:54.025Z,4.33
2022-12-29T01:44:48.959Z,4.30
2022-12-29T01:47:24.896Z,4.10
2022-12-29T01:49:55.498Z,4.25
2022-12-29T01:52:26.167Z,4.22
2022-12-29T01:54:57.935Z,4.24
2022-12-29T01:57:29.949Z,4.23
2022-12-29T02:00:04.425Z,4.20
2022-12-29T02:02:33.759Z,4.22
2022-12-29T02:05:08.055Z,4.20
2022-12-29T02:07:36.088Z,4.22
2022-12-29T02:10:04.644Z,4.16
2022-12-29T02:12:32.545Z,4.21
2022-12-29T02:15:04.094Z,4.23
2022-12-29T02:17:57.052Z,4.25
2022-12-29T02:21:07.478Z,4.23
2022-12-29T02:23:55.513Z,4.20
2022-12-29T02:26:40.134Z,4.22
2022-12-29T02:29:31.824Z,4.23
2022-12-29T02:32:05.519Z,4.13
2022-12-29T02:34:43.163Z,4.10
2022-12-29T02:37:19.693Z,4.11
2022-12-29T02:39:54.487Z,4.07
2022-12-29T02:42:31.342Z,4.02
2022-12-29T02:45:06.920Z,4.03
2022-12-29T02:47:43.624Z,4.03
2022-12-29T02:50:19.658Z,4.13
2022-12-29T02:52:53.610Z,4.07
2022-12-29T02:55:20.586Z,4.09
2022-12-29T02:57:48.545Z,4.11
2022-12-29T03:00:19.223Z,4.21
2022-12-29T03:03:12.858Z,4.23
2022-12-29T03:06:06.001Z,4.27
2022-12-29T03:08:42.031Z,4.22
2022-12-29T03:11:32.595Z,4.11
2022-12-29T03:14:25.777Z,4.15
2022-12-29T03:16:59.599Z,4.21
2022-12-29T03:19:32.860Z,4.19
2022-12-29T03:22:23.123Z,4.22
2022-12-29T03:24:55.179Z,4.16
2022-12-29T03:27:28.219Z,4.06
2022-12-29T03:29:59.556Z,3.88
2022-12-29T03:32:32.637Z,3.72
2022-12-29T03:35:02.884Z,3.68
2022-12-29T03:37:34.869Z,3.49
2022-12-29T03:40:02.803Z,3.60
2022-12-29T03:42:34.642Z,3.62
2022-12-29T03:45:02.795Z,3.54
2022-12-29T03:47:30.657Z,3.58
2022-12-29T03:49:58.600Z,3.54
2022-12-29T03:52:27.827Z,3.51
2022-12-29T03:54:55.651Z,3.41
2022-12-29T03:57:23.535Z,3.45
2022-12-29T03:59:51.411Z,3.33
2022-12-29T04:02:19.393Z,3.33
2022-12-29T04:04:47.453Z,3.27
2022-12-29T04:07:15.302Z,3.22
2022-12-29T04:09:44.541Z,3.22
2022-12-29T04:12:12.351Z,3.14
2022-12-29T04:14:40.174Z,3.06
2022-12-29T04:17:08.307Z,2.65
2022-12-29T04:19:36.287Z,3.15
2022-12-29T04:22:04.160Z,3.12
2022-12-29T04:24:31.979Z,3.24
2022-12-29T04:27:01.215Z,3.41
2022-12-29T04:29:29.061Z,3.52
2022-12-29T04:31:56.946Z,3.57
2022-12-29T04:34:24.750Z,3.71
2022-12-29T04:36:52.660Z,3.80
2022-12-29T04:39:20.492Z,3.62
2022-12-29T04:41:48.481Z,3.83
2022-12-29T04:44:18.005Z,3.85
2022-12-29T04:46:46.145Z,3.82
2022-12-29T04:49:14.124Z,3.80
2022-12-29T04:51:42.176Z,3.72
2022-12-29T04:54:10.466Z,3.56
2022-12-29T04:56:38.385Z,3.75
2022-12-29T04:59:06.405Z,3.81
2022-12-29T05:01:35.778Z,3.76
2022-12-29T05:04:03.726Z,3.85
2022-12-29T05:06:31.630Z,3.85
2022-12-29T05:08:59.483Z,3.84
2022-12-29T05:11:27.321Z,3.79
2022-12-29T05:13:55.200Z,3.73
2022-12-29T05:16:23.223Z,3.72
2022-12-29T05:18:52.608Z,3.70
2022-12-29T05:21:20.540Z,3.71
2022-12-29T05:23:48.606Z,3.71
2022-12-29T05:26:16.540Z,3.74
2022-12-29T05:28:44.400Z,3.72
2022-12-29T05:31:12.348Z,3.75
2022-12-29T05:33:40.357Z,3.73
2022-12-29T05:36:11.542Z,3.79
2022-12-29T05:38:39.450Z,3.76
2022-12-29T05:41:07.501Z,3.74
2022-12-29T05:43:35.562Z,3.75
2022-12-29T05:46:04.762Z,3.72
2022-12-29T05:48:37.682Z,3.85
2022-12-29T05:51:06.246Z,3.63
2022-12-29T05:53:35.496Z,3.80
2022-12-29T05:56:03.634Z,3.83
2022-12-29T05:58:33.208Z,3.83
2022-12-29T06:01:01.201Z,3.88
2022-12-29T06:03:29.279Z,3.86
2022-12-29T06:05:57.574Z,3.93
2022-12-29T06:08:25.413Z,3.96
2022-12-29T06:10:54.660Z,4.07
2022-12-29T06:13:22.743Z,4.26
2022-12-29T06:15:50.936Z,4.49
2022-12-29T06:18:20.451Z,4.81
2022-12-29T06:20:48.850Z,4.85
2022-12-29T06:23:17.861Z,4.63
2022-12-29T06:25:45.834Z,5.26
2022-12-29T06:28:15.206Z,5.36
2022-12-29T06:30:46.303Z,4.98
2022-12-29T06:33:14.580Z,4.51
2022-12-29T06:35:43.624Z,4.50
2022-12-29T06:38:11.556Z,4.76
2022-12-29T06:40:39.471Z,4.88
2022-12-29T06:43:07.476Z,4.76
2022-12-29T06:45:36.819Z,4.84
2022-12-29T06:48:05.146Z,4.32
2022-12-29T06:50:33.082Z,5.21
2022-12-29T06:53:01.023Z,5.39
2022-12-29T06:55:29.304Z,5.88
2022-12-29T06:57:57.446Z,6.44
2022-12-29T07:00:25.954Z,6.74
2022-12-29T07:02:57.314Z,7.16
2022-12-29T07:05:25.905Z,7.63
2022-12-29T07:07:53.856Z,7.80
2022-12-29T07:10:21.790Z,7.93
2022-12-29T07:12:49.706Z,7.75
2022-12-29T07:15:17.869Z,7.81
2022-12-29T07:17:45.830Z,7.80
2022-12-29T07:20:15.089Z,7.96
2022-12-29T07:22:43.458Z,7.87
2022-12-29T07:25:11.528Z,7.72
2022-12-29T07:27:39.402Z,8.24
2022-12-29T07:30:08.074Z,8.77
2022-12-29T07:32:36.729Z,9.06
2022-12-29T07:35:04.971Z,9.58
2022-12-29T07:37:34.360Z,9.69
2022-12-29T07:40:04.429Z,9.99
2022-12-29T07:42:33.099Z,9.44
2022-12-29T07:45:00.967Z,9.53
2022-12-29T07:47:29.350Z,9.24
2022-12-29T07:49:57.427Z,9.47
2022-12-29T07:52:25.301Z,9.78
2022-12-29T07:54:56.917Z,10.12
2022-12-29T07:57:31.320Z,10.19
2022-12-29T07:59:59.852Z,10.72
2022-12-29T08:02:28.293Z,10.56
2022-12-29T08:04:56.241Z,10.17
2022-12-29T08:07:24.123Z,9.99
2022-12-29T08:09:52.033Z,10.75
2022-12-29T08:12:21.374Z,10.91
2022-12-29T08:14:49.257Z,11.26
2022-12-29T08:17:17.144Z,11.22
2022-12-29T08:19:45.031Z,10.76
2022-12-29T08:22:12.892Z,10.67
2022-12-29T08:24:40.759Z,11.25
2022-12-29T08:27:16.250Z,11.55
2022-12-29T08:29:49.169Z,11.20
2022-12-29T08:32:17.726Z,10.46
2022-12-29T08:34:45.612Z,10.46
2022-12-29T08:37:13.496Z,10.47
2022-12-29T08:39:41.363Z,11.38
2022-12-29T08:42:09.172Z,11.20
2022-12-29T08:44:37.039Z,11.83
2022-12-29T08:47:06.357Z,12.15
2022-12-29T08:49:34.420Z,11.91
2022-12-29T08:52:02.273Z,11.76
2022-12-29T08:54:30.099Z,11.60
2022-12-29T08:56:57.949Z,11.31
2022-12-29T08:59:25.855Z,11.30
2022-12-29T09:01:53.852Z,11.72
2022-12-29T09:04:24.702Z,12.03
2022-12-29T09:06:52.704Z,11.89
2022-12-29T09:09:20.613Z,11.12
2022-12-29T09:11:48.541Z,12.09
2022-12-29T09:14:16.503Z,12.07
2022-12-29T09:17:01.984Z,12.45
2022-12-29T09:19:32.410Z,12.70
2022-12-29T09:22:01.133Z,12.42
2022-12-29T09:24:29.057Z,12.42
2022-12-29T09:26:57.001Z,12.67
2022-12-29T09:29:25.253Z,12.60
2022-12-29T09:31:53.174Z,12.85
2022-12-29T09:34:21.375Z,12.66
2022-12-29T09:36:50.604Z,12.57
2022-12-29T09:39:18.479Z,12.44
2022-12-29T09:41:51.780Z,12.80
2022-12-29T09:44:25.477Z,12.73
2022-12-29T09:46:57.475Z,12.67
2022-12-29T09:49:31.610Z,13.23
2022-12-29T09:52:07.359Z,12.42
2022-12-29T09:54:54.954Z,12.88
2022-12-29T09:57:31.711Z,12.93
2022-12-29T10:00:05.440Z,12.86
2022-12-29T10:02:41.924Z,12.90
2022-12-29T10:05:29.125Z,13.23
2022-12-29T10:08:15.665Z,12.42
2022-12-29T10:10:55.958Z,12.30
2022-12-29T10:13:47.702Z,12.43
2022-12-29T10:16:22.184Z,12.22
2022-12-29T10:19:11.435Z,11.85
2022-12-29T10:21:55.688Z,12.73
2022-12-29T10:24:26.903Z,13.14
2022-12-29T10:26:54.785Z,13.33
2022-12-29T10:29:26.680Z,12.66
2022-12-29T10:32:00.671Z,12.27
2022-12-29T10:34:33.478Z,12.47
2022-12-29T10:37:06.258Z,12.84
2022-12-29T10:39:42.946Z,13.34
2022-12-29T10:42:16.025Z,13.78
2022-12-29T10:44:44.218Z,13.78
2022-12-29T10:47:17.569Z,12.89
2022-12-29T10:49:48.369Z,12.82
2022-12-29T10:52:18.137Z,12.84
2022-12-29T10:54:52.988Z,13.00
2022-12-29T10:57:28.477Z,12.90
2022-12-29T10:59:56.587Z,13.18
2022-12-29T11:03:03.271Z,13.11
2022-12-29T11:05:38.070Z,13.35
2022-12-29T11:08:13.126Z,13.05
2022-12-29T11:10:43.797Z,12.71
2022-12-29T11:13:17.092Z,12.78
2022-12-29T11:15:46.924Z,12.69
2022-12-29T11:18:24.395Z,13.10
2022-12-29T11:20:54.674Z,13.12
2022-12-29T11:23:28.798Z,13.36
2022-12-29T11:26:23.901Z,13.11
2022-12-29T11:29:16.839Z,13.61
2022-12-29T11:31:45.757Z,13.35
2022-12-29T11:34:20.554Z,13.31
2022-12-29T11:36:48.816Z,13.46
2022-12-29T11:39:40.051Z,13.56
2022-12-29T11:42:16.852Z,13.00
2022-12-29T11:44:47.579Z,13.50
2022-12-29T11:47:25.328Z,13.91
2022-12-29T11:49:57.301Z,13.73
2022-12-29T11:52:27.747Z,14.12
2022-12-29T11:54:58.698Z,13.71
2022-12-29T11:57:28.083Z,13.75
2022-12-29T11:59:57.226Z,14.39
2022-12-29T12:02:43.083Z,14.50
2022-12-29T12:05:18.356Z,14.24
2022-12-29T12:07:48.886Z,14.02
2022-12-29T12:10:24.519Z,13.83
2022-12-29T12:13:04.040Z,13.29
2022-12-29T12:15:45.321Z,13.22
2022-12-29T12:18:20.056Z,12.83
2022-12-29T12:20:50.433Z,12.80
2022-12-29T12:23:34.140Z,12.67
2022-12-29T12:26:06.381Z,12.65
2022-12-29T12:28:45.220Z,12.69
2022-12-29T12:31:26.825Z,12.73
2022-12-29T12:34:00.066Z,12.12
2022-12-29T12:36:47.754Z,12.14
2022-12-29T12:39:27.927Z,12.06
2022-12-29T12:42:10.893Z,12.35
2022-12-29T12:44:57.033Z,12.58
2022-12-29T12:47:44.115Z,12.28
2022-12-29T12:50:21.360Z,12.53
2022-12-29T12:53:16.913Z,12.55
2022-12-29T12:56:04.390Z,12.46
2022-12-29T12:58:40.631Z,12.58
2022-12-29T13:01:23.975Z,12.64
2022-12-29T13:04:09.852Z,12.35
2022-12-29T13:06:50.272Z,12.15
2022-12-29T13:09:33.490Z,12.00
2022-12-29T13:12:18.349Z,12.02
2022-12-29T13:14:59.435Z,12.34
2022-12-29T13:17:39.489Z,12.44
2022-12-29T13:20:22.235Z,12.67
2022-12-29T13:22:58.637Z,12.60
2022-12-29T13:25:37.555Z,12.03
2022-12-29T13:28:12.661Z,12.64
2022-12-29T13:30:47.702Z,12.81
2022-12-29T13:33:26.536Z,12.66
2022-12-29T13:36:02.267Z,12.96
2022-12-29T13:38:37.697Z,13.01
2022-12-29T13:41:10.556Z,12.14
2022-12-29T13:43:42.139Z,12.66
2022-12-29T13:46:15.212Z,11.48
2022-12-29T13:48:51.560Z,12.15
2022-12-29T13:51:27.747Z,11.99
2022-12-29T13:54:07.545Z,11.94
2022-12-29T13:56:41.062Z,11.82
2022-12-29T13:59:21.334Z,11.56
2022-12-29T14:01:57.306Z,12.07
2022-12-29T14:04:29.138Z,12.51
2022-12-29T14:07:05.587Z,12.57
2022-12-29T14:09:48.729Z,12.15
2022-12-29T14:12:40.738Z,11.60
2022-12-29T14:15:21.678Z,11.10
2022-12-29T14:18:14.063Z,10.83
2022-12-29T14:20:52.003Z,9.48
2022-12-29T14:23:30.685Z,10.34
2022-12-29T14:26:01.608Z,9.31
2022-12-29T14:28:35.744Z,10.41
2022-12-29T14:31:04.769Z,10.30
2022-12-29T14:33:35.644Z,10.25
2022-12-29T14:36:36.438Z,10.15
2022-12-29T14:39:05.904Z,10.17
2022-12-29T14:41:40.756Z,10.12
2022-12-29T14:44:21.707Z,10.06
2022-12-29T14:46:59.377Z,10.05
2022-12-29T14:49:30.399Z,10.06
2022-12-29T14:52:15.603Z,9.77
2022-12-29T14:54:54.192Z,9.57
2022-12-29T14:57:31.093Z,9.51
2022-12-29T15:00:06.945Z,9.25
2022-12-29T15:02:40.719Z,9.61
2022-12-29T15:05:27.275Z,9.68
2022-12-29T15:08:01.927Z,9.67
2022-12-29T15:10:38.090Z,9.49
2022-12-29T15:13:07.455Z,9.52
2022-12-29T15:15:40.260Z,9.50
2022-12-29T15:18:28.711Z,9.47
2022-12-29T15:20:59.425Z,9.56
2022-12-29T15:23:30.404Z,9.57
2022-12-29T15:26:02.788Z,9.45
2022-12-29T15:28:42.269Z,9.53
2022-12-29T15:31:17.400Z,9.38
2022-12-29T15:33:50.730Z,8.90
2022-12-29T15:36:22.985Z,9.96
2022-12-29T15:38:53.076Z,9.84
2022-12-29T15:41:28.420Z,9.45
2022-12-29T15:44:18.739Z,9.40
2022-12-29T15:46:47.858Z,9.18
2022-12-29T15:49:17.368Z,9.05
2022-12-29T15:51:45.825Z,8.94
2022-12-29T15:54:19.868Z,8.74
2022-12-29T15:56:50.993Z,7.83
2022-12-29T15:59:27.765Z,8.74
2022-12-29T16:01:56.927Z,8.64
2022-12-29T16:04:43.309Z,8.50
2022-12-29T16:07:33.254Z,8.41
2022-12-29T16:10:08.468Z,8.35
2022-12-29T16:12:39.196Z,8.27
2022-12-29T16:15:15.100Z,8.23
2022-12-29T16:17:49.817Z,8.12
2022-12-29T16:20:21.345Z,7.96
2022-12-29T16:22:52.807Z,6.89
2022-12-29T16:25:26.174Z,7.53
2022-12-29T16:27:55.342Z,7.92
2022-12-29T16:30:33.665Z,7.74
2022-12-29T16:33:04.198Z,7.43
2022-12-29T16:35:49.100Z,7.53
2022-12-29T16:38:19.561Z,7.58
2022-12-29T16:41:30.609Z,7.51
2022-12-29T16:44:15.509Z,7.44
2022-12-29T16:46:58.723Z,7.49
2022-12-29T16:49:27.985Z,7.43
2022-12-29T16:51:57.245Z,5.88
2022-12-29T16:54:33.055Z,7.38
2022-12-29T16:57:03.464Z,7.38
2022-12-29T16:59:37.666Z,7.35
2022-12-29T17:02:14.575Z,7.26
2022-12-29T17:04:42.878Z,7.07
2022-12-29T17:07:17.588Z,7.06
2022-12-29T17:09:47.096Z,7.07
2022-12-29T17:12:24.434Z,7.08
2022-12-29T17:14:56.370Z,7.03
2022-12-29T17:17:33.950Z,6.91
2022-12-29T17:20:05.674Z,6.87
2022-12-29T17:22:35.243Z,6.90
2022-12-29T17:25:04.771Z,6.92
2022-12-29T17:27:39.526Z,6.82
2022-12-29T17:30:13.482Z,6.72
2022-12-29T17:32:45.517Z,6.51
2022-12-29T17:35:17.327Z,6.37
2022-12-29T17:37:46.891Z,6.05
2022-12-29T17:40:23.539Z,5.89
2022-12-29T17:42:58.105Z,5.61
2022-12-29T17:45:29.188Z,5.79
2022-12-29T17:48:01.440Z,5.91
2022-12-29T17:50:32.647Z,5.91
2022-12-29T17:53:05.875Z,6.01
2022-12-29T17:55:38.234Z,4.97
2022-12-29T17:58:18.501Z,6.12
2022-12-29T18:00:47.230Z,6.19
2022-12-29T18:03:17.893Z,6.39
2022-12-29T18:05:46.433Z,6.50
2022-12-29T18:08:17.687Z,6.60
2022-12-29T18:10:45.895Z,6.52
2022-12-29T18:13:23.224Z,6.59
2022-12-29T18:15:54.072Z,6.54
2022-12-29T18:18:24.547Z,6.31
2022-12-29T18:20:57.211Z,5.12
2022-12-29T18:23:27.971Z,6.08
2022-12-29T18:25:59.925Z,6.28
2022-12-29T18:28:31.819Z,6.19
2022-12-29T18:31:01.894Z,6.31
2022-12-29T18:33:31.313Z,6.11
2022-12-29T18:36:00.805Z,6.13
2022-12-29T18:38:29.900Z,6.20
2022-12-29T18:40:59.357Z,6.00
2022-12-29T18:43:27.299Z,6.29
2022-12-29T18:45:59.517Z,6.30
2022-12-29T18:48:30.498Z,6.20
2022-12-29T18:51:01.060Z,6.31
2022-12-29T18:53:32.832Z,6.40
2022-12-29T18:56:01.820Z,6.46
2022-12-29T18:58:34.114Z,6.40
2022-12-29T19:01:04.104Z,6.41
2022-12-29T19:03:35.161Z,6.22
2022-12-29T19:06:03.243Z,6.29
2022-12-29T19:08:31.324Z,6.35
2022-12-29T19:11:01.118Z,6.46
2022-12-29T19:13:29.995Z,6.43
2022-12-29T19:16:00.003Z,6.34
2022-12-29T19:18:50.898Z,6.59
2022-12-29T19:21:20.152Z,6.69
2022-12-29T19:23:48.362Z,6.70
2022-12-29T19:26:30.313Z,6.66
2022-12-29T19:28:58.697Z,6.75
2022-12-29T19:31:26.933Z,6.80
2022-12-29T19:33:57.089Z,6.82
2022-12-29T19:36:26.101Z,6.84
2022-12-29T19:38:58.079Z,6.77
2022-12-29T19:41:26.311Z,6.54
2022-12-29T19:43:57.104Z,6.69
2022-12-29T19:46:25.859Z,6.43
2022-12-29T19:48:58.957Z,6.66
2022-12-29T19:51:31.641Z,6.68
2022-12-29T19:54:00.774Z,6.55
2022-12-29T19:56:28.810Z,6.35
2022-12-29T19:58:57.975Z,6.38
2022-12-29T20:01:29.847Z,6.48
2022-12-29T20:03:58.197Z,6.50
2022-12-29T20:06:30.355Z,6.43
2022-12-29T20:09:00.316Z,6.38
2022-12-29T20:11:29.465Z,6.27
2022-12-29T20:13:59.742Z,6.24
2022-12-29T20:16:29.650Z,6.28
2022-12-29T20:18:58.121Z,6.32
2022-12-29T20:21:27.432Z,6.22
2022-12-29T20:23:59.715Z,6.31
2022-12-29T20:26:31.838Z,6.29
2022-12-29T20:29:05.952Z,6.40
2022-12-29T20:31:36.717Z,6.12
2022-12-29T20:34:09.099Z,6.35
2022-12-29T20:36:40.651Z,6.54
2022-12-29T20:39:15.218Z,6.44
2022-12-29T20:41:43.798Z,6.33
2022-12-29T20:44:11.772Z,6.19
2022-12-29T20:46:43.860Z,4.89
2022-12-29T20:49:12.520Z,6.20
2022-12-29T20:54:37.137Z,5.87
2022-12-29T20:57:06.915Z,6.12
2022-12-29T20:59:34.765Z,6.09
2022-12-29T21:02:03.040Z,6.06
2022-12-29T21:04:57.653Z,6.05
2022-12-29T21:07:21.955Z,6.28
2022-12-29T21:09:51.223Z,6.10
2022-12-29T21:12:19.187Z,4.65
2022-12-29T21:14:48.165Z,6.06
2022-12-29T21:17:16.426Z,6.08
2022-12-29T21:19:44.339Z,5.94
2022-12-29T21:22:13.805Z,6.04
2022-12-29T21:24:41.707Z,6.01
2022-12-29T21:27:10.988Z,5.82
2022-12-29T21:29:38.836Z,5.99
2022-12-29T21:32:07.158Z,5.59
2022-12-29T21:34:35.607Z,5.94
2022-12-29T21:37:03.652Z,5.81
2022-12-29T21:39:33.537Z,5.94
2022-12-29T21:42:02.652Z,5.55
2022-12-29T21:44:49.557Z,5.83
2022-12-29T21:47:17.471Z,5.56
2022-12-29T21:49:48.941Z,5.98
2022-12-29T21:52:16.805Z,5.79
2022-12-29T21:55:05.197Z,5.98
2022-12-29T21:57:50.458Z,5.96
2022-12-29T22:00:37.449Z,5.72
2022-12-29T22:03:23.987Z,4.93
2022-12-29T22:06:10.308Z,5.81
2022-12-29T22:08:56.077Z,5.81
2022-12-29T22:11:41.625Z,5.75
2022-12-29T22:14:09.677Z,5.86
2022-12-29T22:16:39.492Z,5.71
2022-12-29T22:19:08.812Z,5.70
2022-12-29T22:21:36.742Z,5.89
2022-12-29T22:24:04.723Z,5.68
2022-12-29T22:26:32.835Z,5.49
2022-12-29T22:29:00.990Z,5.48
2022-12-29T22:31:30.716Z,5.48
2022-12-29T22:34:01.683Z,5.32
2022-12-29T22:36:30.465Z,5.33
2022-12-29T22:38:58.405Z,5.31
2022-12-29T22:41:26.659Z,5.25
2022-12-29T22:43:54.501Z,5.24
2022-12-29T22:46:22.607Z,5.11
2022-12-29T22:48:50.541Z,5.31
2022-12-29T22:51:19.800Z,5.28
2022-12-29T22:53:49.784Z,5.16
2022-12-29T22:56:17.623Z,4.90
2022-12-29T22:58:46.938Z,4.99
2022-12-29T23:01:17.077Z,4.59
2022-12-29T23:03:45.642Z,4.73
2022-12-29T23:06:16.119Z,5.05
2022-12-29T23:08:47.356Z,5.00
2022-12-29T23:11:15.353Z,5.00
2022-12-29T23:13:45.228Z,5.11
2022-12-29T23:16:13.573Z,5.25
2022-12-29T23:18:41.519Z,5.31
2022-12-29T23:21:09.761Z,5.32
2022-12-29T23:23:56.404Z,5.31
2022-12-29T23:32:50.819Z,5.28
2022-12-29T23:35:18.845Z,5.13
2022-12-29T23:37:46.673Z,5.08
2022-12-29T23:40:14.770Z,4.93
2022-12-29T23:42:42.643Z,5.23
2022-12-29T23:45:12.030Z,5.26
2022-12-29T23:47:39.912Z,5.07
2022-12-29T23:50:10.892Z,5.20
2022-12-29T23:52:39.842Z,5.24
2022-12-29T23:55:09.300Z,5.21
2022-12-29T23:57:37.270Z,5.18
